Time;durP1;ratioP1;P1;durP2;ratioP2;P2;SDS_P1;SDS_P2;PMS_P1;PMS_P2;Temp;Humidity;BMP_temperature;BMP_pressure;BME280_temperature;BME280_humidity;BME280_pressure;Samples;Min_cycle;Max_cycle;Signal;HPM_P1;HPM_P2
2022/11/25 00:01:17;;;;;;;13.77;5.32;;;;;;;-0.08;100.00;98988.50;5086184;28;20040;-81
2022/11/25 00:03:45;;;;;;;11.63;5.00;;;;;;;-0.14;100.00;98962.25;5088210;28;20135;-80
2022/11/25 00:06:14;;;;;;;11.38;4.53;;;;;;;0.09;100.00;98985.34;5086914;28;20401;-80
2022/11/25 00:08:41;;;;;;;10.25;4.93;;;;;;;0.06;100.00;98977.56;5087026;28;20127;-81
2022/11/25 00:11:09;;;;;;;9.50;4.65;;;;;;;-0.03;100.00;98956.91;5082539;28;20127;-81
2022/11/25 00:13:36;;;;;;;10.88;4.93;;;;;;;0.12;100.00;98978.88;5082981;28;20064;-81
2022/11/25 00:16:04;;;;;;;10.75;5.05;;;;;;;0.03;100.00;98971.59;5089526;28;20048;-81
2022/11/25 00:18:31;;;;;;;9.20;4.82;;;;;;;-0.09;100.00;98971.63;5085125;28;20051;-81
2022/11/25 00:21:05;;;;;;;16.58;5.43;;;;;;;0.01;100.00;98985.09;5088739;28;20044;-81
2022/11/25 00:23:32;;;;;;;10.90;4.75;;;;;;;-0.06;100.00;98979.41;5082122;28;20419;-81
2022/11/25 00:26:05;;;;;;;10.18;5.10;;;;;;;-0.16;100.00;98954.38;5087490;28;20503;-80
2022/11/25 00:28:31;;;;;;;16.25;5.80;;;;;;;-0.02;100.00;98970.13;5088839;28;20142;-80
2022/11/25 00:31:04;;;;;;;13.90;5.63;;;;;;;0.15;100.00;98987.53;5087563;28;20040;-81
2022/11/25 00:33:31;;;;;;;11.30;4.85;;;;;;;-0.01;100.00;98981.69;5083559;28;20529;-81
2022/11/25 00:36:02;;;;;;;6.38;4.30;;;;;;;-0.12;100.00;98981.69;5085107;28;20070;-81
2022/11/25 00:38:29;;;;;;;9.38;5.38;;;;;;;-0.19;100.00;98971.50;5090016;28;20055;-81
2022/11/25 00:46:20;;;;;;;8.63;4.22;;;;;;;-0.39;100.00;98975.75;5085874;28;20059;-80
2022/11/25 00:48:47;;;;;;;8.18;3.78;;;;;;;-0.21;100.00;98975.25;5084020;28;20163;-81
2022/11/25 00:51:15;;;;;;;5.88;3.60;;;;;;;-0.14;100.00;98984.47;5085866;28;20070;-81
2022/11/25 00:53:41;;;;;;;5.50;3.47;;;;;;;-0.20;100.00;98983.16;5083549;28;20040;-80
2022/11/25 00:56:14;;;;;;;5.55;3.25;;;;;;;-0.21;100.00;98972.56;5080935;28;20043;-81
2022/11/25 00:58:41;;;;;;;8.40;3.72;;;;;;;-0.17;100.00;98984.72;5086086;28;20124;-81
2022/11/25 01:01:09;;;;;;;7.68;3.05;;;;;;;-0.26;100.00;98977.44;5083512;28;20129;-81
2022/11/25 01:03:36;;;;;;;9.50;2.90;;;;;;;-0.42;100.00;98969.75;5087477;28;20076;-81
2022/11/25 01:06:04;;;;;;;4.25;2.67;;;;;;;-0.30;100.00;98978.66;5085830;28;20079;-81
2022/11/25 01:08:33;;;;;;;4.97;3.13;;;;;;;-0.40;100.00;98966.00;5086257;28;20051;-81
2022/11/25 01:11:00;;;;;;;5.32;2.70;;;;;;;-0.19;100.00;98978.66;5081788;28;20143;-81
2022/11/25 01:13:27;;;;;;;11.23;2.85;;;;;;;-0.12;100.00;98982.56;5083407;28;20054;-81
2022/11/25 01:15:54;;;;;;;6.97;2.83;;;;;;;0.02;100.00;98991.31;5075043;28;20050;-81
2022/11/25 01:18:20;;;;;;;4.18;2.50;;;;;;;0.02;100.00;98992.16;5081927;28;20058;-81
2022/11/25 01:20:47;;;;;;;12.90;3.35;;;;;;;-0.02;100.00;98964.78;5084747;28;20143;-80
2022/11/25 01:23:14;;;;;;;3.53;2.28;;;;;;;-0.02;100.00;98975.47;5072337;28;20127;-80
2022/11/25 01:25:42;;;;;;;6.57;2.75;;;;;;;0.02;100.00;98965.41;5077958;28;20083;-81
2022/11/25 01:28:08;;;;;;;3.42;1.90;;;;;;;0.26;100.00;98994.69;5073169;28;20139;-81
2022/11/25 01:30:35;;;;;;;4.47;2.30;;;;;;;0.32;100.00;98961.25;5081252;28;20475;-81
2022/11/25 01:33:02;;;;;;;11.07;2.53;;;;;;;0.45;100.00;98961.09;5078048;28;20075;-81
2022/11/25 01:35:29;;;;;;;10.98;2.30;;;;;;;0.49;100.00;98968.72;5081855;28;20055;-81
2022/11/25 01:37:55;;;;;;;11.50;2.50;;;;;;;0.44;100.00;98967.44;5083835;28;20404;-81
2022/11/25 01:40:22;;;;;;;11.18;2.65;;;;;;;0.51;100.00;98982.84;5084296;28;20093;-81
2022/11/25 01:42:52;;;;;;;6.30;2.75;;;;;;;0.43;100.00;98950.50;5077267;28;20047;-81
2022/11/25 01:45:37;;;;;;;4.63;2.05;;;;;;;0.57;100.00;98969.94;5078223;28;20055;-81
2022/11/25 01:48:14;;;;;;;5.55;2.35;;;;;;;0.48;100.00;98971.53;5082227;28;20115;-81
2022/11/25 01:50:42;;;;;;;7.32;2.92;;;;;;;0.45;100.00;98975.31;5071911;28;20044;-81
2022/11/25 01:53:11;;;;;;;4.38;2.28;;;;;;;0.42;100.00;98966.69;5077272;28;20048;-81
2022/11/25 01:55:42;;;;;;;11.85;2.63;;;;;;;0.40;100.00;98969.47;5083417;28;20052;-80
2022/11/25 01:58:13;;;;;;;7.18;2.58;;;;;;;0.48;100.00;99004.50;5084618;28;20064;-81
2022/11/25 02:00:40;;;;;;;9.05;2.92;;;;;;;0.46;100.00;98990.38;5081127;28;20040;-80
2022/11/25 02:03:08;;;;;;;3.33;2.45;;;;;;;0.48;100.00;98987.56;5074262;28;20048;-81
2022/11/25 02:05:42;;;;;;;5.53;2.53;;;;;;;0.61;100.00;98988.28;5083626;28;20067;-81
2022/11/25 02:08:09;;;;;;;6.15;2.15;;;;;;;0.54;100.00;98987.06;5085362;28;20082;-81
2022/11/25 02:10:36;;;;;;;5.63;2.95;;;;;;;0.57;100.00;98975.28;5087547;28;20048;-81
2022/11/25 02:13:04;;;;;;;6.00;2.67;;;;;;;0.42;100.00;98953.31;5081659;28;20500;-81
2022/11/25 02:15:34;;;;;;;9.13;3.75;;;;;;;0.32;100.00;98962.09;5083558;28;20109;-81
2022/11/25 02:18:01;;;;;;;7.97;3.90;;;;;;;0.39;100.00;98985.66;5090344;28;20135;-81
2022/11/25 02:20:28;;;;;;;10.32;4.63;;;;;;;0.22;100.00;98977.19;5076980;28;20060;-81
2022/11/25 02:23:03;;;;;;;9.80;3.75;;;;;;;0.43;100.00;98982.59;5087913;28;20079;-81
2022/11/25 02:25:33;;;;;;;6.55;3.50;;;;;;;0.47;100.00;98985.91;5083190;28;20056;-81
2022/11/25 02:28:04;;;;;;;4.15;2.40;;;;;;;0.37;100.00;98964.38;5083543;28;20124;-81
2022/11/25 02:30:31;;;;;;;4.90;2.78;;;;;;;0.43;100.00;98968.41;5080690;28;20079;-81
2022/11/25 02:32:59;;;;;;;5.72;3.38;;;;;;;0.37;100.00;98969.75;5086852;28;20075;-81
2022/11/25 02:35:28;;;;;;;11.00;4.55;;;;;;;0.40;100.00;98998.06;5086579;28;20135;-81
2022/11/25 02:37:59;;;;;;;7.22;3.55;;;;;;;0.42;100.00;98996.09;5090107;28;20266;-81
2022/11/25 02:40:29;;;;;;;7.57;2.90;;;;;;;0.47;100.00;98984.06;5083336;28;20055;-81
2022/11/25 02:43:00;;;;;;;7.25;2.55;;;;;;;0.41;100.00;98956.97;5085647;28;20050;-81
2022/11/25 02:45:36;;;;;;;7.25;3.40;;;;;;;0.45;100.00;98986.03;5091751;28;20105;-81
2022/11/25 02:48:03;;;;;;;5.70;3.25;;;;;;;0.30;100.00;98976.56;5091242;28;20044;-81
2022/11/25 02:50:30;;;;;;;4.68;2.85;;;;;;;0.37;100.00;98991.13;5084578;28;20055;-81
2022/11/25 02:52:56;;;;;;;7.25;2.33;;;;;;;0.41;100.00;98989.91;5092299;28;20048;-81
2022/11/25 02:55:23;;;;;;;8.60;3.42;;;;;;;0.41;100.00;98989.06;5083067;28;20074;-80
2022/11/25 02:57:49;;;;;;;4.85;2.75;;;;;;;0.51;100.00;98987.31;5091890;28;20058;-80
2022/11/25 03:00:19;;;;;;;6.80;2.85;;;;;;;0.36;100.00;98992.09;5092365;28;20041;-83
2022/11/25 03:02:46;;;;;;;4.47;3.05;;;;;;;0.22;100.00;98977.19;5090107;28;20048;-81
2022/11/25 03:05:13;;;;;;;4.55;2.50;;;;;;;0.23;100.00;98957.50;5093482;28;20044;-81
2022/11/25 03:07:39;;;;;;;9.07;2.13;;;;;;;0.29;100.00;98966.84;5089745;28;20058;-81
2022/11/25 03:10:07;;;;;;;4.60;2.67;;;;;;;0.21;100.00;98943.41;5086375;28;20040;-81
2022/11/25 03:12:33;;;;;;;7.38;3.28;;;;;;;0.26;100.00;98961.75;5086129;28;20055;-81
2022/11/25 03:15:00;;;;;;;6.53;2.90;;;;;;;0.28;100.00;98965.13;5091598;28;20036;-81
2022/11/25 03:17:28;;;;;;;4.45;2.60;;;;;;;0.14;100.00;98960.91;5091100;28;20058;-82
2022/11/25 03:19:54;;;;;;;2.53;1.48;;;;;;;0.28;100.00;98962.47;5090736;28;20055;-82
2022/11/25 03:22:21;;;;;;;6.28;1.80;;;;;;;0.30;100.00;98964.06;5084464;28;20059;-81
2022/11/25 03:24:48;;;;;;;7.88;2.45;;;;;;;0.25;100.00;98930.63;5080377;28;20054;-81
2022/11/25 03:27:15;;;;;;;5.13;1.95;;;;;;;0.37;100.00;98945.66;5089111;28;20127;-81
2022/11/25 03:29:44;;;;;;;6.85;2.35;;;;;;;0.35;100.00;98934.25;5090340;28;20134;-81
2022/11/25 03:32:11;;;;;;;5.13;1.92;;;;;;;0.26;100.00;98937.69;5089044;28;20053;-81
2022/11/25 03:34:39;;;;;;;6.45;1.90;;;;;;;0.28;100.00;98930.38;5093200;28;20083;-82
2022/11/25 03:37:06;;;;;;;6.03;2.03;;;;;;;0.35;100.00;98926.25;5083673;28;20116;-80
2022/11/25 03:39:33;;;;;;;6.70;2.17;;;;;;;0.53;100.00;98940.75;5091206;28;20396;-81
2022/11/25 03:41:59;;;;;;;4.93;2.00;;;;;;;0.55;100.00;98945.97;5090985;28;20055;-81
2022/11/25 03:44:26;;;;;;;6.05;1.70;;;;;;;0.58;100.00;98937.69;5090969;28;20048;-81
2022/11/25 03:46:53;;;;;;;6.28;3.00;;;;;;;0.45;100.00;98931.66;5090556;28;20391;-82
2022/11/25 03:49:20;;;;;;;6.97;3.28;;;;;;;0.46;100.00;98939.56;5088771;28;20047;-81
2022/11/25 03:51:48;;;;;;;5.15;3.22;;;;;;;0.43;100.00;98931.78;5082881;28;20102;-81
2022/11/25 03:54:16;;;;;;;11.27;3.53;;;;;;;0.35;100.00;98921.72;5090228;28;20070;-81
2022/11/25 03:56:42;;;;;;;8.13;3.22;;;;;;;0.50;100.00;98937.50;5091577;28;20051;-82
2022/11/25 03:59:09;;;;;;;5.60;3.33;;;;;;;0.45;100.00;98940.56;5086738;28;20491;-81
2022/11/25 04:01:36;;;;;;;10.60;4.38;;;;;;;0.41;100.00;98946.28;5090545;28;20134;-81
2022/11/25 04:04:03;;;;;;;6.68;3.45;;;;;;;0.24;100.00;98920.91;5090471;28;20044;-82
2022/11/25 04:06:30;;;;;;;7.03;2.97;;;;;;;0.23;100.00;98941.44;5086876;28;20052;-81
2022/11/25 04:08:59;;;;;;;7.68;3.45;;;;;;;0.31;100.00;98943.50;5085467;28;20048;-82
2022/11/25 04:12:45;;;;;;;10.73;4.00;;;;;;;0.28;100.00;98941.91;5088318;28;20492;-81
2022/11/25 04:14:12;;;;;;;11.70;3.85;;;;;;;0.24;100.00;98932.47;5090992;28;20561;-81
2022/11/25 04:16:38;;;;;;;9.35;4.00;;;;;;;0.24;100.00;98927.13;5082926;28;20056;-81
2022/11/25 04:19:05;;;;;;;7.22;3.10;;;;;;;0.28;100.00;98931.22;5077790;28;20044;-81
2022/11/25 04:21:32;;;;;;;5.60;3.03;;;;;;;0.38;100.00;98949.19;5091759;28;20090;-81
2022/11/25 04:24:00;;;;;;;9.02;3.15;;;;;;;0.21;100.00;98935.38;5085704;28;20059;-81
2022/11/25 04:26:26;;;;;;;8.75;2.85;;;;;;;-0.05;100.00;98924.13;5090909;28;20131;-81
2022/11/25 04:28:53;;;;;;;4.53;2.55;;;;;;;-0.06;100.00;98925.94;5089408;28;20048;-81
2022/11/25 04:31:20;;;;;;;6.38;3.65;;;;;;;-0.07;100.00;98926.91;5091533;28;20044;-81
2022/11/25 04:33:46;;;;;;;11.77;3.50;;;;;;;-0.10;100.00;98919.16;5082298;28;20403;-81
2022/11/25 04:36:13;;;;;;;4.40;2.78;;;;;;;-0.01;100.00;98909.53;5091955;28;20044;-81
2022/11/25 04:38:42;;;;;;;12.27;2.85;;;;;;;0.16;100.00;98929.56;5087965;28;20078;-81
2022/11/25 04:41:10;;;;;;;5.50;2.45;;;;;;;0.17;100.00;98925.91;5089629;28;20064;-81
2022/11/25 04:43:40;;;;;;;11.88;2.90;;;;;;;0.28;100.00;98928.53;5089043;28;20048;-81
2022/11/25 04:46:07;;;;;;;3.50;2.03;;;;;;;0.30;100.00;98923.94;5088457;28;20043;-81
2022/11/25 04:48:33;;;;;;;4.20;2.15;;;;;;;0.41;100.00;98940.94;5085454;28;20067;-81
2022/11/25 04:51:00;;;;;;;8.00;3.95;;;;;;;0.49;100.00;98931.28;5091554;28;20136;-81
2022/11/25 04:53:26;;;;;;;11.35;3.97;;;;;;;0.37;100.00;98932.28;5087129;28;20048;-80
2022/11/25 04:55:53;;;;;;;10.00;3.70;;;;;;;0.32;100.00;98926.50;5091749;28;20126;-82
2022/11/25 05:01:01;;;;;;;4.35;2.70;;;;;;;0.41;100.00;98920.38;5089852;28;20083;-82
2022/11/25 05:03:28;;;;;;;8.45;3.42;;;;;;;0.46;100.00;98923.50;5083307;28;20139;-83
2022/11/25 05:05:55;;;;;;;5.78;2.30;;;;;;;0.55;100.00;98911.22;5090879;28;20342;-83
2022/11/25 05:08:21;;;;;;;7.78;2.10;;;;;;;0.62;100.00;98927.63;5089874;28;20047;-82
2022/11/25 05:10:48;;;;;;;4.10;1.92;;;;;;;0.65;100.00;98938.91;5091710;28;20472;-82
2022/11/25 05:13:14;;;;;;;3.47;1.88;;;;;;;0.83;100.00;98938.34;5089588;28;20058;-82
2022/11/25 05:15:43;;;;;;;6.70;1.90;;;;;;;0.79;100.00;98944.94;5086110;28;20058;-82
2022/11/25 05:18:10;;;;;;;5.13;2.60;;;;;;;0.61;100.00;98940.13;5087650;28;20071;-91
2022/11/25 05:20:36;;;;;;;5.75;1.83;;;;;;;0.67;100.00;98939.63;5093255;28;20054;-82
2022/11/25 05:23:03;;;;;;;4.35;2.20;;;;;;;0.65;100.00;98946.94;5087259;28;20044;-82
2022/11/25 05:25:30;;;;;;;3.50;2.20;;;;;;;0.62;100.00;98962.41;5090228;28;20606;-82
2022/11/25 05:27:58;;;;;;;6.78;2.60;;;;;;;0.44;100.00;98946.88;5086202;28;20036;-82
2022/11/25 05:30:24;;;;;;;3.88;2.22;;;;;;;0.56;100.00;98962.88;5085587;28;20044;-81
2022/11/25 05:32:52;;;;;;;6.35;2.83;;;;;;;0.49;100.00;98952.69;5082520;28;20094;-82
2022/11/25 05:35:20;;;;;;;4.82;2.05;;;;;;;0.41;100.00;98928.41;5090922;28;20131;-82
2022/11/25 05:37:47;;;;;;;7.88;2.90;;;;;;;0.52;100.00;98944.41;5081917;28;20052;-82
2022/11/25 05:40:14;;;;;;;8.02;2.97;;;;;;;0.67;100.00;98957.50;5090898;28;20093;-82
2022/11/25 05:42:41;;;;;;;3.67;2.63;;;;;;;0.57;100.00;98956.56;5085898;28;20043;-82
2022/11/25 05:45:10;;;;;;;4.57;2.50;;;;;;;0.64;100.00;98965.78;5081432;28;20040;-82
2022/11/25 05:47:36;;;;;;;7.47;2.85;;;;;;;0.60;100.00;98964.31;5086915;28;20394;-82
2022/11/25 05:50:05;;;;;;;7.70;2.40;;;;;;;0.58;100.00;98977.00;5089057;28;20568;-81
2022/11/25 05:52:32;;;;;;;9.02;2.65;;;;;;;0.44;100.00;98970.09;5088929;28;20044;-82
2022/11/25 05:54:59;;;;;;;7.28;2.95;;;;;;;0.44;100.00;98962.91;5086378;28;20040;-82
2022/11/25 05:57:27;;;;;;;6.45;2.65;;;;;;;0.65;100.00;98995.09;5090558;28;20055;-82
2022/11/25 05:59:54;;;;;;;6.25;2.67;;;;;;;0.67;100.00;98992.28;5081432;28;20086;-81
2022/11/25 06:02:20;;;;;;;7.10;3.05;;;;;;;0.61;100.00;98990.97;5078600;28;20406;-82
2022/11/25 06:04:47;;;;;;;11.65;2.50;;;;;;;0.49;100.00;98983.94;5087824;28;20059;-81
2022/11/25 06:07:15;;;;;;;3.45;2.28;;;;;;;0.51;100.00;98987.31;5090189;28;20040;-82
2022/11/25 06:09:42;;;;;;;5.38;2.70;;;;;;;0.40;100.00;98974.84;5084388;28;20047;-82
2022/11/25 06:12:08;;;;;;;6.50;2.33;;;;;;;0.41;100.00;98983.72;5089510;28;20047;-82
2022/11/25 06:14:35;;;;;;;4.45;2.28;;;;;;;0.39;100.00;99005.22;5077102;28;20050;-81
2022/11/25 06:17:01;;;;;;;4.82;1.92;;;;;;;0.21;100.00;98993.34;5087099;28;20062;-81
2022/11/25 06:19:28;;;;;;;5.68;2.38;;;;;;;0.32;100.00;98999.53;5080847;28;20048;-81
2022/11/25 06:21:55;;;;;;;4.43;2.03;;;;;;;0.33;100.00;99003.03;5090243;28;20131;-81
2022/11/25 06:24:23;;;;;;;10.25;2.15;;;;;;;0.38;100.00;99003.53;5087105;28;20052;-81
2022/11/25 06:26:49;;;;;;;4.50;2.15;;;;;;;0.41;100.00;98999.78;5084933;28;20487;-81
2022/11/25 06:29:16;;;;;;;5.32;2.13;;;;;;;0.18;100.00;98973.03;5085164;28;20132;-81
2022/11/25 06:31:43;;;;;;;4.75;2.17;;;;;;;0.30;100.00;98995.28;5081950;28;20057;-81
2022/11/25 06:34:10;;;;;;;7.78;2.53;;;;;;;0.34;100.00;99008.25;5086706;28;20049;-82
2022/11/25 06:36:36;;;;;;;3.83;1.98;;;;;;;0.38;100.00;99010.69;5086269;28;20051;-82
2022/11/25 06:39:03;;;;;;;5.22;1.83;;;;;;;0.17;100.00;98998.94;5086813;28;20052;-82
2022/11/25 06:41:31;;;;;;;4.80;1.77;;;;;;;0.23;100.00;99010.97;5082180;28;20080;-83
2022/11/25 06:43:57;;;;;;;3.85;2.13;;;;;;;0.18;100.00;98991.75;5079916;28;20476;-81
2022/11/25 06:46:24;;;;;;;4.80;1.90;;;;;;;0.32;100.00;99015.56;5083367;28;21209;-81
2022/11/25 06:48:51;;;;;;;4.32;1.95;;;;;;;0.24;100.00;99004.66;5087477;28;20059;-81
2022/11/25 06:51:17;;;;;;;4.55;1.95;;;;;;;0.16;100.00;98999.06;5080203;28;20070;-81
2022/11/25 06:53:44;;;;;;;7.22;2.58;;;;;;;0.31;100.00;99013.88;5088923;28;20475;-81
2022/11/25 06:56:13;;;;;;;4.95;2.08;;;;;;;0.23;100.00;99004.78;5087411;28;20046;-83
2022/11/25 06:58:44;;;;;;;2.90;2.10;;;;;;;0.18;100.00;99015.81;5083829;28;20290;-82
2022/11/25 07:01:13;;;;;;;5.88;2.20;;;;;;;0.24;100.00;99025.19;5084925;28;20060;-81
2022/11/25 07:03:41;;;;;;;9.25;2.30;;;;;;;0.06;100.00;99003.44;5088617;28;20076;-82
2022/11/25 07:06:08;;;;;;;6.97;2.00;;;;;;;0.19;100.00;99022.03;5087710;28;20042;-81
2022/11/25 07:08:35;;;;;;;4.30;2.08;;;;;;;0.13;100.00;99018.03;5080009;28;20071;-81
2022/11/25 07:11:03;;;;;;;5.10;2.15;;;;;;;0.21;100.00;99028.97;5090157;28;20056;-81
2022/11/25 07:13:30;;;;;;;5.15;2.38;;;;;;;0.26;100.00;99026.75;5082243;28;20059;-82
2022/11/25 07:16:00;;;;;;;8.23;2.28;;;;;;;0.15;100.00;99026.75;5076632;28;20052;-81
2022/11/25 07:18:31;;;;;;;6.80;2.50;;;;;;;0.19;100.00;99027.38;5084336;28;20135;-80
2022/11/25 07:21:05;;;;;;;3.10;1.80;;;;;;;0.28;100.00;99030.16;5081182;28;20040;-81
2022/11/25 07:23:32;;;;;;;10.10;2.05;;;;;;;0.23;100.00;99027.00;5090940;28;20127;-81
2022/11/25 07:26:04;;;;;;;4.57;2.30;;;;;;;0.34;100.00;99037.69;5090277;28;20055;-81
2022/11/25 07:28:31;;;;;;;4.32;1.88;;;;;;;0.22;100.00;99013.78;5088341;28;20066;-81
2022/11/25 07:31:06;;;;;;;5.50;1.98;;;;;;;0.46;100.00;99045.72;5092155;28;20044;-81
2022/11/25 07:33:33;;;;;;;7.60;2.78;;;;;;;0.36;100.00;99037.56;5092267;28;20076;-81
2022/11/25 07:36:02;;;;;;;8.10;2.00;;;;;;;0.56;100.00;99061.84;5091741;28;20059;-81
2022/11/25 07:38:29;;;;;;;8.47;2.43;;;;;;;0.65;100.00;99051.28;5092997;28;20047;-81
2022/11/25 07:40:56;;;;;;;5.97;1.88;;;;;;;0.72;100.00;99046.25;5093177;28;20096;-82
2022/11/25 07:43:22;;;;;;;4.72;1.67;;;;;;;0.92;100.00;99062.50;5087883;28;20051;-81
2022/11/25 07:45:49;;;;;;;6.28;2.53;;;;;;;0.88;100.00;99049.38;5093148;28;20052;-81
2022/11/25 07:48:19;;;;;;;9.40;2.22;;;;;;;1.12;100.00;99058.22;5085347;28;20051;-81
2022/11/25 07:50:48;;;;;;;4.22;2.10;;;;;;;1.31;100.00;99078.94;5092966;28;20075;-81
2022/11/25 07:53:15;;;;;;;6.67;2.30;;;;;;;1.43;100.00;99064.53;5090839;28;20054;-81
2022/11/25 07:55:42;;;;;;;6.80;2.88;;;;;;;1.54;100.00;99074.34;5091822;28;20051;-82
2022/11/25 07:58:08;;;;;;;3.42;2.60;;;;;;;1.63;100.00;99060.16;5080141;28;20051;-82
2022/11/25 08:00:35;;;;;;;8.00;3.53;;;;;;;1.81;100.00;99067.59;5090340;28;20064;-82
2022/11/25 08:03:02;;;;;;;7.32;3.45;;;;;;;1.94;100.00;99066.44;5091830;28;20055;-82
2022/11/25 08:05:32;;;;;;;7.30;3.78;;;;;;;1.97;100.00;99056.41;5092240;28;20476;-82
2022/11/25 08:07:59;;;;;;;6.97;3.72;;;;;;;2.04;100.00;99066.47;5093057;28;20036;-82
2022/11/25 08:10:26;;;;;;;8.30;3.42;;;;;;;2.11;100.00;99061.44;5092238;28;20048;-82
2022/11/25 08:12:52;;;;;;;5.75;3.22;;;;;;;2.13;100.00;99071.03;5087737;28;20571;-81
2022/11/25 08:15:19;;;;;;;6.82;3.08;;;;;;;2.24;100.00;99098.75;5092368;28;20044;-82
2022/11/25 08:17:45;;;;;;;11.77;4.07;;;;;;;2.23;100.00;99073.78;5091358;28;20105;-81
2022/11/25 08:20:13;;;;;;;13.50;5.40;;;;;;;2.28;100.00;99090.31;5085478;28;20182;-81
2022/11/25 08:22:41;;;;;;;15.60;5.20;;;;;;;2.23;100.00;99089.88;5090843;28;20044;-82
2022/11/25 08:25:08;;;;;;;17.70;5.15;;;;;;;2.26;100.00;99088.78;5086663;28;20044;-83
2022/11/25 08:27:35;;;;;;;18.10;5.28;;;;;;;2.39;100.00;99089.38;5085367;28;20498;-83
2022/11/25 08:30:15;;;;;;;14.00;5.82;;;;;;;2.33;100.00;99087.22;5092170;28;20131;-83
2022/11/25 08:32:42;;;;;;;15.40;4.85;;;;;;;2.29;100.00;99097.38;5091071;28;20056;-82
2022/11/25 08:35:09;;;;;;;11.43;5.22;;;;;;;2.28;100.00;99076.91;5090986;28;20119;-81
2022/11/25 08:37:35;;;;;;;9.35;4.05;;;;;;;2.23;100.00;99057.69;5091461;28;20048;-82
2022/11/25 08:40:04;;;;;;;10.63;4.80;;;;;;;2.38;100.00;99063.53;5091800;28;20411;-83
2022/11/25 08:42:31;;;;;;;15.18;4.53;;;;;;;2.75;100.00;99068.31;5086091;28;20048;-83
2022/11/25 08:44:57;;;;;;;13.65;3.45;;;;;;;2.87;100.00;99050.25;5091725;28;20086;-83
2022/11/25 08:47:24;;;;;;;10.38;3.20;;;;;;;2.95;100.00;99042.38;5092034;28;20559;-84
2022/11/25 08:49:51;;;;;;;13.32;3.50;;;;;;;3.12;100.00;99072.22;5090024;28;20036;-82
2022/11/25 08:52:18;;;;;;;7.55;3.47;;;;;;;3.21;100.00;99062.44;5091253;28;20051;-82
2022/11/25 08:54:45;;;;;;;8.88;3.28;;;;;;;3.17;100.00;99043.91;5091671;28;20044;-82
2022/11/25 08:57:13;;;;;;;7.90;3.10;;;;;;;3.36;100.00;99078.03;5087139;28;20134;-82
2022/11/25 08:59:40;;;;;;;6.22;3.00;;;;;;;3.34;100.00;99080.00;5091483;28;20090;-82
2022/11/25 09:02:08;;;;;;;7.85;3.33;;;;;;;3.40;100.00;99072.34;5090782;28;20040;-83
2022/11/25 09:04:35;;;;;;;8.77;3.60;;;;;;;3.64;100.00;99104.19;5091547;28;20143;-83
2022/11/25 09:07:04;;;;;;;13.68;5.82;;;;;;;3.73;100.00;99103.31;5090474;28;20525;-84
2022/11/25 09:09:31;;;;;;;19.80;9.10;;;;;;;3.67;100.00;99077.00;5091108;28;20139;-83
2022/11/25 09:11:58;;;;;;;14.73;8.18;;;;;;;3.93;100.00;99108.69;5086900;28;20051;-83
2022/11/25 09:14:26;;;;;;;14.48;6.88;;;;;;;3.96;100.00;99071.59;5090476;28;20071;-82
2022/11/25 09:16:53;;;;;;;12.10;5.40;;;;;;;4.20;100.00;99089.09;5091405;28;20459;-81
2022/11/25 09:19:19;;;;;;;12.05;4.55;;;;;;;4.29;100.00;99090.94;5091378;28;20442;-81
2022/11/25 09:21:46;;;;;;;15.50;4.57;;;;;;;4.40;100.00;99079.13;5082967;28;20062;-84
2022/11/25 09:24:13;;;;;;;13.48;3.30;;;;;;;4.67;100.00;99082.84;5085496;28;20113;-83
2022/11/25 09:26:41;;;;;;;10.40;2.50;;;;;;;4.88;100.00;99082.59;5089273;28;20550;-82
2022/11/25 09:29:08;;;;;;;6.90;2.40;;;;;;;5.04;100.00;99101.63;5091633;28;20039;-83
2022/11/25 09:31:36;;;;;;;5.63;2.25;;;;;;;5.21;100.00;99102.66;5090914;28;20604;-83
2022/11/25 09:34:03;;;;;;;5.28;2.53;;;;;;;5.17;100.00;99109.34;5090926;28;20377;-83
2022/11/25 09:36:30;;;;;;;7.47;3.25;;;;;;;5.18;100.00;99094.00;5089589;28;20040;-83
2022/11/25 09:38:57;;;;;;;8.65;3.20;;;;;;;5.12;100.00;99092.81;5083998;28;20044;-82
2022/11/25 09:47:23;;;;;;;8.02;2.78;;;;;;;5.24;100.00;99115.84;5075763;28;20040;-83
2022/11/25 09:50:03;;;;;;;6.10;2.22;;;;;;;5.14;100.00;99110.50;5095714;28;20079;-83
2022/11/25 09:52:39;;;;;;;5.45;2.72;;;;;;;5.09;100.00;99120.88;5083830;28;20068;-83
2022/11/25 09:55:09;;;;;;;8.52;2.90;;;;;;;5.14;100.00;99112.34;5086952;28;20128;-83
2022/11/25 09:57:52;;;;;;;6.47;2.70;;;;;;;5.21;100.00;99121.53;5091013;28;20052;-84
2022/11/25 10:00:21;;;;;;;7.95;3.15;;;;;;;5.27;100.00;99118.22;5083270;28;20044;-83
2022/11/25 10:03:01;;;;;;;7.93;3.15;;;;;;;5.32;100.00;99107.81;5090085;28;20101;-83
2022/11/25 10:05:31;;;;;;;;;;;;;;;5.47;100.00;99116.22;5091382;28;20048;-83
2022/11/25 10:08:03;;;;;;;11.35;3.50;;;;;;;5.53;100.00;99105.84;5087199;28;20276;-84
2022/11/25 10:10:40;;;;;;;6.95;3.03;;;;;;;5.65;100.00;99115.41;5086158;28;20059;-83
2022/11/25 10:13:17;;;;;;;6.70;2.75;;;;;;;5.74;100.00;99106.38;5090091;28;20388;-83
2022/11/25 10:15:46;;;;;;;5.63;2.53;;;;;;;5.86;100.00;99117.78;5083122;28;20054;-83
2022/11/25 10:18:21;;;;;;;6.85;2.45;;;;;;;5.97;100.00;99109.44;5090805;28;20048;-83
2022/11/25 10:20:51;;;;;;;4.88;1.90;;;;;;;5.94;100.00;99103.50;5082933;28;20467;-84
2022/11/25 10:23:22;;;;;;;2.80;2.00;;;;;;;5.82;100.00;99100.19;5085458;28;20051;-84
2022/11/25 10:25:53;;;;;;;6.63;1.95;;;;;;;5.85;100.00;99116.91;5087781;28;20105;-83
2022/11/25 10:28:21;;;;;;;8.20;2.65;;;;;;;5.87;100.00;99116.75;5089816;28;20435;-84
2022/11/25 10:30:54;;;;;;;7.38;2.50;;;;;;;5.98;100.00;99121.94;5083555;28;20555;-84
2022/11/25 10:33:28;;;;;;;5.55;2.35;;;;;;;6.03;100.00;99129.56;5090098;28;20100;-84
2022/11/25 10:35:58;;;;;;;5.40;2.10;;;;;;;6.04;100.00;99117.78;5088842;28;20136;-84
2022/11/25 10:38:30;;;;;;;8.25;2.33;;;;;;;5.95;100.00;99094.41;5091099;28;20155;-84
2022/11/25 10:40:58;;;;;;;4.05;2.20;;;;;;;5.86;100.00;99096.19;5090833;28;20044;-84
2022/11/25 10:43:24;;;;;;;2.65;1.92;;;;;;;5.84;100.00;99114.34;5090473;28;20043;-85
2022/11/25 10:45:57;;;;;;;7.97;2.63;;;;;;;5.87;100.00;99119.44;5085779;28;20075;-84
2022/11/25 10:48:45;;;;;;;5.55;2.85;;;;;;;5.91;100.00;99128.94;5090466;28;20043;-84
2022/11/25 10:51:28;;;;;;;10.13;2.08;;;;;;;5.84;100.00;99128.72;5090761;28;20044;-84
2022/11/25 10:54:18;;;;;;;6.28;1.85;;;;;;;5.81;100.00;99112.84;5089974;28;20048;-85
2022/11/25 10:56:49;;;;;;;4.22;2.42;;;;;;;5.81;100.00;99123.63;5090497;28;20056;-84
2022/11/25 10:59:23;;;;;;;7.43;2.58;;;;;;;5.96;100.00;99147.34;5091057;28;20048;-84
2022/11/25 11:01:52;;;;;;;5.70;2.17;;;;;;;5.90;100.00;99146.16;5090185;28;20054;-85
2022/11/25 11:04:20;;;;;;;5.00;1.70;;;;;;;5.94;100.00;99147.50;5092443;28;20128;-85
2022/11/25 11:06:49;;;;;;;8.05;2.08;;;;;;;5.87;100.00;99132.94;5093715;28;20044;-84
2022/11/25 11:09:35;;;;;;;13.15;2.38;;;;;;;5.95;100.00;99135.72;5094332;28;20150;-85
2022/11/25 11:12:18;;;;;;;8.27;2.05;;;;;;;6.18;100.00;99157.69;5093593;28;20052;-84
2022/11/25 11:14:44;;;;;;;6.20;2.22;;;;;;;6.21;100.00;99167.34;5089088;28;20428;-85
2022/11/25 11:17:29;;;;;;;9.35;3.13;;;;;;;6.17;100.00;99163.25;5094089;28;20052;-85
